• Join FlightAware (Why Join?)
  • Login
  • US Flag 
05:25PM EST


 

Airport Tracker/Info


-or-


 

Live Flight TrackerFlight Track Log ✈ DAL3974 ✈ 26-Apr-2013 ✈ KDTW - KMHT

Flight Track Log - Related Links

Times and Time Zones

All times are in EDT time to prevent confusion due to time zone crossing. See the DAL3974 flight status page for this flight to view local times or setup timezone preferences in your user account.

Time Position Orientation Groundspeed Altitude Reporting Facility
EDT Latitude Longitude Course Direction KTS MPH feet Rate Location/Type
08:38PM 42.2017 -83.3583 94° East 148 170 1,300  Level Cleveland Center
08:38PM 42.1706 -83.3511 170° South 173 199 2,500 1,740 Climbing Cleveland Center
08:39PM 42.1167 -83.3378 170° South 229 264 4,400 1,860 Climbing Cleveland Center
08:40PM 42.0547 -83.3125 163° South 291 335 6,100 2,100 Climbing Cleveland Center
08:41PM 42.3129 -82.7332 78° East  Level FlightAware Approximate
08:41PM 42.0608 -83.2233 85° East 290 334 8,400  Level Cleveland Center
08:42PM 42.3346 -82.5757 77° East  Level FlightAware Approximate
08:42PM 42.1008 -83.1131 64° Northeast 310 357 9,000  Level Cleveland Center
08:43PM 42.3653 -82.4243 94° East  Level FlightAware Approximate
08:43PM 42.1406 -83.0139 62° Northeast 300 345 10,900  Level Cleveland Center
08:44PM 42.1867 -82.8978 62° Northeast 306 352 12,400 1,680 Climbing Cleveland Center
08:45PM 42.2350 -82.7819 61° Northeast 329 379 14,300 1,800 Climbing Cleveland Center
08:46PM 42.2853 -82.6572 61° Northeast 349 402 16,100 1,800 Climbing Cleveland Center
08:47PM 42.3353 -82.5353 61° Northeast 362 417 18,000 1,500 Climbing Cleveland Center
08:48PM 42.3667 -82.3986 73° East 367 422 19,200 1,200 Climbing Cleveland Center
08:49PM 42.3606 -82.2522 93° East 373 429 20,400 1,200 Climbing Cleveland Center
08:50PM 42.3522 -82.1003 94° East 386 444 21,600 1,080 Climbing Cleveland Center
08:51PM 42.3481 -81.9431 92° East 410 472 22,600 900 Climbing Cleveland Center
08:52PM 42.3392 -81.7825 94° East 425 489 23,400 780 Climbing Cleveland Center
08:53PM 42.3325 -81.6194 93° East 425 489 24,200 660 Climbing Cleveland Center
08:54PM 42.3256 -81.4706 94° East 430 495 24,800 600 Climbing Cleveland Center
08:55PM 42.3183 -81.3047 93° East 441 507 25,500 660 Climbing Cleveland Center
08:56PM 42.3089 -81.1364 94° East 441 507 26,200 660 Climbing Cleveland Center
08:57PM 42.3011 -80.9650 93° East 453 521 26,900 660 Climbing Cleveland Center
08:58PM 42.3017 -80.7908 90° East 453 521 27,600 660 Climbing Cleveland Center
08:59PM 42.3186 -80.6056 83° East 458 527 28,300 600 Climbing Cleveland Center
09:00PM 42.3331 -80.4372 83° East 458 527 28,900 600 Climbing Cleveland Center
09:01PM 42.3494 -80.2658 83° East 458 527 29,500 540 Climbing Cleveland Center
09:02PM 42.3633 -80.0942 84° East 465 535 30,000 480 Climbing Cleveland Center
09:03PM 42.3811 -79.9197 82° East 460 529 30,500 480 Climbing Cleveland Center
09:04PM 42.3947 -79.7483 84° East 465 535 31,000 240 Climbing Cleveland Center
09:05PM 42.4100 -79.5764 83° East 465 535 31,000  Level Cleveland Center
09:06PM 42.4250 -79.3989 83° East 465 535 31,000  Level Cleveland Center
09:07PM 42.4417 -79.2214 83° East 465 535 31,000  Level Cleveland Center
09:08PM 42.4542 -79.0439 84° East 470 541 31,000  Level Cleveland Center
09:09PM 42.4686 -78.8858 83° East 465 535 31,000  Level Cleveland Center
09:10PM 42.4825 -78.7081 84° East 465 535 31,000  Level Cleveland Center
09:11PM 42.4961 -78.5331 84° East 465 535 31,000  Level Cleveland Center
09:12PM 42.5075 -78.3525 85° East 465 535 31,000  Level Cleveland Center
09:13PM 42.5206 -78.1744 84° East 470 541 31,000  Level Cleveland Center
09:14PM 42.5333 -77.9964 84° East 470 541 31,000  Level Cleveland Center
09:15PM 42.5478 -77.8042 84° East 470 541 31,000  Level Cleveland Center
09:16PM 42.5578 -77.6261 86° East 464 534 31,000  Level Cleveland Center
09:17PM 42.5678 -77.4536 85° East 464 534 31,000  Level Cleveland Center
09:18PM 42.5817 -77.2753 84° East 464 534 31,000  Level Cleveland Center
09:20PM 42.6036 -76.9286 85° East 461 531 31,000  Level Boston Center
09:21PM 42.6122 -76.7572 86° East 456 525 31,000  Level Boston Center
09:22PM 42.6231 -76.5828 85° East 456 525 31,000  Level Boston Center
09:23PM 42.6333 -76.4086 85° East 456 525 31,000  Level Boston Center
09:24PM 42.6456 -76.2342 85° East 456 525 31,000  Level Boston Center
09:25PM 42.6511 -76.0622 87° East 456 525 31,000  Level Boston Center
09:26PM 42.6608 -75.8850 86° East 456 525 31,000  Level Boston Center
09:27PM 42.6703 -75.7103 86° East 461 531 31,000 -360 Level Boston Center
09:28PM 42.6792 -75.5356 86° East 461 531 30,300 -900 Descending Boston Center
09:29PM 42.6861 -75.3522 87° East 466 536 29,300 -660 Descending Boston Center
09:30PM 42.6950 -75.1661 86° East 478 550 29,000 -180 Descending Boston Center
09:31PM 42.7033 -74.9858 86° East 478 550 29,000  Level Boston Center
09:32PM 42.7117 -74.7856 87° East 478 550 29,000  Level Boston Center
09:33PM 42.7194 -74.6078 87° East 478 550 29,000  Level Boston Center
09:35PM 42.7247 -74.4269 88° East 478 550 29,000 -780 Level Boston Center
09:36PM 42.7325 -74.2125 87° East 478 550 27,400 -1,440 Descending Boston Center
09:37PM 42.7372 -74.0344 88° East 478 550 26,200 -1,260 Descending Boston Center
09:38PM 42.7458 -73.8536 86° East 478 550 24,900 -1,260 Descending Boston Center
09:39PM 42.7542 -73.6814 86° East 466 536 23,700 -1,320 Descending Boston Center
09:40PM 42.7600 -73.5061 87° East 460 529 22,300 -1,380 Descending Boston Center
09:41PM 42.7678 -73.3339 86° East 460 529 21,000 -1,320 Descending Boston Center
09:42PM 42.7733 -73.1642 87° East 460 529 19,700 -1,020 Descending Boston Center
09:43PM 42.7742 -73.0114 90° East 455 524 19,000 -360 Descending Boston Center
09:44PM 42.7833 -72.8306 86° East 443 510 19,000 -540 Level Boston Center
09:45PM 42.7858 -72.6692 89° East 432 497 18,000 -1,320 Descending Boston Center
09:46PM 42.7922 -72.5081 87° East 432 497 16,400 -1,920 Descending Boston Center
09:47PM 42.7942 -72.3581 89° East 417 480 14,200 -2,160 Descending Boston Center
09:48PM 42.8067 -72.2136 83° East 400 460 12,100 -2,040 Descending Boston Center
09:49PM 42.8250 -72.0975 78° East 353 406 10,200 -1,800 Descending Boston Center
09:50PM 42.8372 -71.9786 82° East 300 345 8,600 -1,680 Descending Boston Center
09:51PM 42.8283 -71.8853 97° East 274 315 6,900 -1,680 Descending Boston Center
09:52PM 42.8194 -71.7778 96° East 269 310 5,300 -1,380 Descending Boston Center
09:53PM 42.8147 -71.6986 95° East 243 280 4,200 -1,200 Descending Boston Center
09:54PM 42.8122 -71.6164 92° East 207 238 2,900 -1,320 Descending Boston Center